createdAt,value
2022-12-24T00:01:04.586Z,35.03
2022-12-24T00:03:31.547Z,39.17
2022-12-24T00:05:58.507Z,27.30
2022-12-24T00:08:25.366Z,33.30
2022-12-24T00:10:53.752Z,29.17
2022-12-24T00:13:21.463Z,28.00
2022-12-24T00:15:49.067Z,33.03
2022-12-24T00:18:15.806Z,32.63
2022-12-24T00:20:46.057Z,31.73
2022-12-24T00:23:12.935Z,40.90
2022-12-24T00:25:39.862Z,30.40
2022-12-24T00:28:06.730Z,36.10
2022-12-24T00:30:33.604Z,38.13
2022-12-24T00:33:00.579Z,30.07
2022-12-24T00:35:38.741Z,31.90
2022-12-24T00:38:05.811Z,37.27
2022-12-24T00:40:33.247Z,34.37
2022-12-24T00:43:00.119Z,28.27
2022-12-24T00:45:29.764Z,30.63
2022-12-24T00:47:56.600Z,33.13
2022-12-24T00:50:23.422Z,25.83
2022-12-24T00:52:50.401Z,33.83
2022-12-24T00:55:17.263Z,35.30
2022-12-24T00:57:44.011Z,34.37
2022-12-24T01:00:11.158Z,31.60
2022-12-24T01:02:38.668Z,39.87
2022-12-24T01:05:11.552Z,35.83
2022-12-24T01:07:42.148Z,37.07
2022-12-24T01:10:10.448Z,38.27
2022-12-24T01:12:37.876Z,33.87
2022-12-24T01:15:05.549Z,41.37
2022-12-24T01:17:33.959Z,26.83
2022-12-24T01:20:00.819Z,32.03
2022-12-24T01:22:27.595Z,35.27
2022-12-24T01:24:54.385Z,37.17
2022-12-24T01:27:21.368Z,36.97
2022-12-24T01:29:48.035Z,30.07
2022-12-24T01:32:14.870Z,33.70
2022-12-24T01:34:41.712Z,31.93
2022-12-24T01:37:08.383Z,35.73
2022-12-24T01:39:35.137Z,41.77
2022-12-24T01:42:20.437Z,38.87
2022-12-24T01:44:52.230Z,26.83
2022-12-24T01:47:27.528Z,39.13
2022-12-24T01:50:09.669Z,31.90
2022-12-24T01:52:36.947Z,36.10
2022-12-24T01:55:09.776Z,36.33
2022-12-24T01:57:57.920Z,33.70
2022-12-24T02:00:24.648Z,34.90
2022-12-24T02:02:53.179Z,35.27
2022-12-24T02:05:31.030Z,35.23
2022-12-24T02:08:00.407Z,38.87
2022-12-24T02:10:27.193Z,36.97
2022-12-24T02:12:54.330Z,34.27
2022-12-24T02:15:21.911Z,37.37
2022-12-24T02:18:10.916Z,37.80
2022-12-24T02:21:06.419Z,39.77
2022-12-24T02:24:06.875Z,40.23
2022-12-24T02:26:45.781Z,47.27
2022-12-24T02:29:40.267Z,42.47
2022-12-24T02:32:22.949Z,32.50
2022-12-24T02:35:15.904Z,32.47
2022-12-24T02:38:08.661Z,34.47
2022-12-24T02:40:41.123Z,36.40
2022-12-24T02:43:13.878Z,44.70
2022-12-24T02:45:44.948Z,32.43
2022-12-24T02:48:13.757Z,36.70
2022-12-24T02:50:40.520Z,51.00
2022-12-24T02:53:13.057Z,37.07
2022-12-24T02:55:56.799Z,40.33
2022-12-24T02:58:38.562Z,38.50
2022-12-24T03:01:17.520Z,39.53
2022-12-24T03:04:15.907Z,37.00
2022-12-24T03:06:54.036Z,54.57
2022-12-24T03:09:25.519Z,34.40
2022-12-24T03:12:21.179Z,36.37
2022-12-24T03:14:49.654Z,40.07
2022-12-24T03:17:20.535Z,38.10
2022-12-24T03:19:48.047Z,36.70
2022-12-24T03:22:17.081Z,38.63
2022-12-24T03:24:43.868Z,41.87
2022-12-24T03:27:12.864Z,48.43
2022-12-24T03:29:40.995Z,46.20
2022-12-24T03:32:08.114Z,40.40
2022-12-24T03:34:37.849Z,46.23
2022-12-24T03:37:04.725Z,41.57
2022-12-24T03:39:31.415Z,36.17
2022-12-24T03:41:58.116Z,45.97
2022-12-24T03:44:27.568Z,37.03
2022-12-24T03:46:54.247Z,47.07
2022-12-24T03:49:20.949Z,30.23
2022-12-24T03:51:47.598Z,31.10
2022-12-24T03:54:14.483Z,45.83
2022-12-24T03:56:41.170Z,48.83
2022-12-24T03:59:07.841Z,53.20
2022-12-24T04:01:34.672Z,37.93
2022-12-24T04:04:01.444Z,35.40
2022-12-24T04:06:28.117Z,47.70
2022-12-24T04:08:54.824Z,56.60
2022-12-24T04:11:21.504Z,50.30
2022-12-24T04:13:48.285Z,39.03
2022-12-24T04:16:17.423Z,43.20
2022-12-24T04:18:44.358Z,43.13
2022-12-24T04:21:11.485Z,48.37
2022-12-24T04:23:39.917Z,51.83
2022-12-24T04:26:09.096Z,48.03
2022-12-24T04:28:36.901Z,44.43
2022-12-24T04:31:07.137Z,44.90
2022-12-24T04:33:34.186Z,49.90
2022-12-24T04:36:02.107Z,44.00
2022-12-24T04:38:29.153Z,44.80
2022-12-24T04:41:04.581Z,51.40
2022-12-24T04:43:31.658Z,57.30
2022-12-24T04:46:14.880Z,63.60
2022-12-24T04:48:42.021Z,76.50
2022-12-24T04:51:09.636Z,54.10
2022-12-24T04:53:37.407Z,57.03
2022-12-24T04:56:07.103Z,57.60
2022-12-24T04:58:34.362Z,62.47
2022-12-24T05:01:09.057Z,57.33
2022-12-24T05:03:35.946Z,66.37
2022-12-24T05:06:04.465Z,65.10
2022-12-24T05:08:31.286Z,69.53
2022-12-24T05:10:58.830Z,61.63
2022-12-24T05:13:31.947Z,55.17
2022-12-24T05:16:05.189Z,72.07
2022-12-24T05:18:32.040Z,58.27
2022-12-24T05:20:58.695Z,63.77
2022-12-24T05:23:44.374Z,54.33
2022-12-24T05:26:23.687Z,73.43
2022-12-24T05:28:56.943Z,57.60
2022-12-24T05:31:25.999Z,47.13
2022-12-24T05:33:54.720Z,55.73
2022-12-24T05:36:22.071Z,57.03
2022-12-24T05:38:48.937Z,54.93
2022-12-24T05:41:15.777Z,38.33
2022-12-24T05:43:42.430Z,49.50
2022-12-24T05:46:11.249Z,49.97
2022-12-24T05:48:37.992Z,56.33
2022-12-24T05:51:10.587Z,60.70
2022-12-24T05:53:37.653Z,55.87
2022-12-24T05:56:10.523Z,71.43
2022-12-24T05:58:37.912Z,61.10
2022-12-24T06:01:05.363Z,60.40
2022-12-24T06:03:32.850Z,61.07
2022-12-24T06:06:01.042Z,55.20
2022-12-24T06:08:28.684Z,50.97
2022-12-24T06:10:57.901Z,53.60
2022-12-24T06:13:25.243Z,61.00
2022-12-24T06:15:55.658Z,59.83
2022-12-24T06:18:23.057Z,55.63
2022-12-24T06:20:54.116Z,51.87
2022-12-24T06:23:21.653Z,40.43
2022-12-24T06:25:48.715Z,56.13
2022-12-24T06:28:15.970Z,54.50
2022-12-24T06:30:47.612Z,51.27
2022-12-24T06:33:15.071Z,57.17
2022-12-24T06:35:41.879Z,49.13
2022-12-24T06:38:08.565Z,56.77
2022-12-24T06:40:35.233Z,50.60
2022-12-24T06:43:01.889Z,57.57
2022-12-24T06:45:28.566Z,54.27
2022-12-24T06:47:55.220Z,55.60
2022-12-24T06:50:21.940Z,54.10
2022-12-24T06:52:48.686Z,36.10
2022-12-24T06:55:15.442Z,46.00
2022-12-24T06:57:42.112Z,45.50
2022-12-24T07:00:11.061Z,46.43
2022-12-24T07:02:41.849Z,53.67
2022-12-24T07:05:10.451Z,43.83
2022-12-24T07:07:38.668Z,40.37
2022-12-24T07:10:07.066Z,55.97
2022-12-24T07:12:34.998Z,55.93
2022-12-24T07:15:01.663Z,52.77
2022-12-24T07:17:28.487Z,49.47
2022-12-24T07:19:55.164Z,50.50
2022-12-24T07:22:21.866Z,48.33
2022-12-24T07:24:48.544Z,61.03
2022-12-24T07:27:15.263Z,61.63
2022-12-24T07:29:42.308Z,54.97
2022-12-24T07:32:09.087Z,62.37
2022-12-24T07:34:36.195Z,62.33
2022-12-24T07:37:02.973Z,62.17
2022-12-24T07:39:29.724Z,57.50
2022-12-24T07:41:56.664Z,63.73
2022-12-24T07:44:23.821Z,65.77
2022-12-24T07:46:50.784Z,66.47
2022-12-24T07:49:17.587Z,62.67
2022-12-24T07:51:44.486Z,63.07
2022-12-24T07:54:11.296Z,53.80
2022-12-24T07:56:38.042Z,62.87
2022-12-24T07:59:04.796Z,58.30
2022-12-24T08:01:31.637Z,57.67
2022-12-24T08:03:58.812Z,55.77
2022-12-24T08:06:25.771Z,48.00
2022-12-24T08:08:55.586Z,65.87
2022-12-24T08:11:22.298Z,66.60
2022-12-24T08:13:49.089Z,59.97
2022-12-24T08:16:15.987Z,51.10
2022-12-24T08:18:43.693Z,50.03
2022-12-24T08:21:10.491Z,53.47
2022-12-24T08:23:37.525Z,55.20
2022-12-24T08:26:07.553Z,54.50
2022-12-24T08:28:34.289Z,49.53
2022-12-24T08:31:01.073Z,55.87
2022-12-24T08:33:27.987Z,49.77
2022-12-24T08:35:56.246Z,57.07
2022-12-24T08:38:23.203Z,48.40
2022-12-24T08:40:50.439Z,50.50
2022-12-24T08:43:18.149Z,50.07
2022-12-24T08:45:46.460Z,54.73
2022-12-24T08:48:13.277Z,45.60
2022-12-24T08:50:41.212Z,51.80
2022-12-24T08:53:09.368Z,54.47
2022-12-24T08:55:36.651Z,55.20
2022-12-24T08:58:03.558Z,53.00
2022-12-24T09:00:30.382Z,52.90
2022-12-24T09:02:57.815Z,57.00
2022-12-24T09:05:26.084Z,54.10
2022-12-24T09:07:53.092Z,55.60
2022-12-24T09:10:20.471Z,45.03
2022-12-24T09:12:47.837Z,42.83
2022-12-24T09:15:14.883Z,46.53
2022-12-24T09:17:41.843Z,48.90
2022-12-24T09:20:09.708Z,56.73
2022-12-24T09:22:38.485Z,50.23
2022-12-24T09:25:06.314Z,55.37
2022-12-24T09:27:33.144Z,50.40
2022-12-24T09:29:59.840Z,59.90
2022-12-24T09:32:26.669Z,55.73
2022-12-24T09:34:54.131Z,42.37
2022-12-24T09:37:20.994Z,44.83
2022-12-24T09:39:47.788Z,48.10
2022-12-24T09:42:32.593Z,53.00
2022-12-24T09:45:12.076Z,55.13
2022-12-24T09:47:45.116Z,34.67
2022-12-24T09:50:54.362Z,42.50
2022-12-24T09:53:40.583Z,33.93
2022-12-24T09:56:24.716Z,47.37
2022-12-24T09:58:57.579Z,43.50
2022-12-24T10:01:24.707Z,43.17
2022-12-24T10:03:51.727Z,34.10
2022-12-24T10:06:29.476Z,39.87
2022-12-24T10:09:08.189Z,43.40
2022-12-24T10:11:44.627Z,43.87
2022-12-24T10:14:34.588Z,41.20
2022-12-24T10:17:41.308Z,36.97
2022-12-24T10:20:49.561Z,40.17
2022-12-24T10:23:37.223Z,32.93
2022-12-24T10:26:20.111Z,39.50
2022-12-24T10:28:58.066Z,46.60
2022-12-24T10:31:40.240Z,45.27
2022-12-24T10:34:16.276Z,41.07
2022-12-24T10:36:42.957Z,45.63
2022-12-24T10:39:20.125Z,36.67
2022-12-24T10:41:49.936Z,31.63
2022-12-24T10:44:22.771Z,36.73
2022-12-24T10:46:49.458Z,36.43
2022-12-24T10:49:40.805Z,35.73
2022-12-24T10:52:13.198Z,42.67
2022-12-24T10:55:21.363Z,41.53
2022-12-24T10:58:01.444Z,36.97
2022-12-24T11:00:35.643Z,39.53
2022-12-24T11:03:13.965Z,25.73
2022-12-24T11:05:41.012Z,26.50
2022-12-24T11:08:13.982Z,34.30
2022-12-24T11:10:44.437Z,32.77
2022-12-24T11:13:39.335Z,35.57
2022-12-24T11:16:21.056Z,28.13
2022-12-24T11:18:59.348Z,40.37
2022-12-24T11:21:29.780Z,33.20
2022-12-24T11:23:59.921Z,38.27
2022-12-24T11:26:29.405Z,41.70
2022-12-24T11:29:07.316Z,28.30
2022-12-24T11:31:37.617Z,34.90
2022-12-24T11:34:31.009Z,39.60
2022-12-24T11:37:15.159Z,32.33
2022-12-24T11:39:47.413Z,27.20
2022-12-24T11:42:28.670Z,28.33
2022-12-24T11:44:57.987Z,32.33
2022-12-24T11:47:41.743Z,28.83
2022-12-24T11:50:32.516Z,41.43
2022-12-24T11:53:23.397Z,21.63
2022-12-24T11:56:20.884Z,28.67
2022-12-24T11:58:55.042Z,26.27
2022-12-24T12:01:35.005Z,39.27
2022-12-24T12:04:13.114Z,30.17
2022-12-24T12:06:58.573Z,39.30
2022-12-24T12:09:31.468Z,30.03
2022-12-24T12:12:22.600Z,31.17
2022-12-24T12:14:58.733Z,23.93
2022-12-24T12:17:50.580Z,22.67
2022-12-24T12:20:28.079Z,35.00
2022-12-24T12:22:57.591Z,23.63
2022-12-24T12:25:45.676Z,31.07
2022-12-24T12:28:25.716Z,33.30
2022-12-24T12:31:16.964Z,35.43
2022-12-24T12:34:06.084Z,35.10
2022-12-24T12:37:02.239Z,24.00
2022-12-24T12:39:31.423Z,22.80
2022-12-24T12:42:04.731Z,24.80
2022-12-24T12:44:54.222Z,23.23
2022-12-24T12:47:39.060Z,20.53
2022-12-24T12:50:38.164Z,34.53
2022-12-24T12:53:22.954Z,24.30
2022-12-24T12:55:57.016Z,25.33
2022-12-24T12:58:29.358Z,19.03
2022-12-24T13:01:06.446Z,22.97
2022-12-24T13:03:42.088Z,24.23
2022-12-24T13:06:30.724Z,20.60
2022-12-24T13:09:12.698Z,24.67
2022-12-24T13:11:54.144Z,28.67
2022-12-24T13:14:48.499Z,19.70
2022-12-24T13:17:45.211Z,18.07
2022-12-24T13:20:21.698Z,22.07
2022-12-24T13:23:02.582Z,21.87
2022-12-24T13:25:40.623Z,19.23
2022-12-24T13:28:22.108Z,17.57
2022-12-24T13:30:51.009Z,15.07
2022-12-24T13:33:38.866Z,20.50
2022-12-24T13:36:22.483Z,28.07
2022-12-24T13:38:57.262Z,22.77
2022-12-24T13:41:41.345Z,18.60
2022-12-24T13:44:13.025Z,18.43
2022-12-24T13:47:04.818Z,20.17
2022-12-24T13:49:48.189Z,18.83
2022-12-24T13:52:50.550Z,14.10
2022-12-24T13:55:18.189Z,16.07
2022-12-24T13:57:48.186Z,16.93
2022-12-24T14:00:21.036Z,20.33
2022-12-24T14:02:59.561Z,22.57
2022-12-24T14:05:32.614Z,13.60
2022-12-24T14:08:02.037Z,24.77
2022-12-24T14:10:38.813Z,21.83
2022-12-24T14:13:10.076Z,20.33
2022-12-24T14:16:04.172Z,23.20
2022-12-24T14:18:34.112Z,21.60
2022-12-24T14:21:02.379Z,18.20
2022-12-24T14:23:37.415Z,17.83
2022-12-24T14:26:10.912Z,19.47
2022-12-24T14:28:44.677Z,25.93
2022-12-24T14:31:19.203Z,17.87
2022-12-24T14:33:48.882Z,24.27
2022-12-24T14:36:22.035Z,27.47
2022-12-24T14:38:49.850Z,22.57
2022-12-24T14:41:30.158Z,20.23
2022-12-24T14:44:14.995Z,26.00
2022-12-24T14:46:51.113Z,25.77
2022-12-24T14:49:45.626Z,29.00
2022-12-24T14:55:29.546Z,32.93
2022-12-24T14:58:18.373Z,28.43
2022-12-24T15:00:45.580Z,21.77
2022-12-24T15:03:17.858Z,20.97
2022-12-24T15:05:45.765Z,29.93
2022-12-24T15:08:18.627Z,20.00
2022-12-24T15:10:50.490Z,20.07
2022-12-24T15:13:26.254Z,20.60
2022-12-24T15:15:55.499Z,24.57
2022-12-24T15:18:26.565Z,26.27
2022-12-24T15:21:00.171Z,21.50
2022-12-24T15:23:36.613Z,29.07
2022-12-24T15:26:15.983Z,34.47
2022-12-24T15:28:43.958Z,32.97
2022-12-24T15:31:21.866Z,33.40
2022-12-24T15:33:51.489Z,32.97
2022-12-24T15:36:26.460Z,29.37
2022-12-24T15:38:56.375Z,30.20
2022-12-24T15:41:27.647Z,31.30
2022-12-24T15:44:00.908Z,27.17
2022-12-24T15:46:29.835Z,40.23
2022-12-24T15:48:58.992Z,34.67
2022-12-24T15:51:34.452Z,40.13
2022-12-24T15:54:10.485Z,41.77
2022-12-24T15:56:44.329Z,45.37
2022-12-24T15:59:23.112Z,40.83
2022-12-24T16:01:49.960Z,50.97
2022-12-24T16:04:25.705Z,52.53
2022-12-24T16:07:04.775Z,44.33
2022-12-24T16:09:43.564Z,35.97
2022-12-24T16:12:23.246Z,42.23
2022-12-24T16:14:57.467Z,36.17
2022-12-24T16:17:27.113Z,37.63
2022-12-24T16:20:07.279Z,32.13
2022-12-24T16:22:39.643Z,40.93
2022-12-24T16:25:18.341Z,38.13
2022-12-24T16:27:45.021Z,33.63
2022-12-24T16:30:12.374Z,38.07
2022-12-24T16:32:42.013Z,47.07
2022-12-24T16:35:26.964Z,43.23
2022-12-24T16:37:54.839Z,47.70
2022-12-24T16:40:26.771Z,47.47
2022-12-24T16:43:13.029Z,45.37
2022-12-24T16:45:39.787Z,34.87
2022-12-24T16:48:07.389Z,50.77
2022-12-24T16:50:34.637Z,46.67
2022-12-24T16:53:01.360Z,73.07
2022-12-24T16:55:28.053Z,76.20
2022-12-24T16:57:54.801Z,67.90
2022-12-24T17:00:22.904Z,62.33
2022-12-24T17:02:50.324Z,74.43
2022-12-24T17:05:17.564Z,58.70
2022-12-24T17:07:44.694Z,77.37
2022-12-24T17:10:12.906Z,76.20
2022-12-24T17:12:39.995Z,67.17
2022-12-24T17:15:07.367Z,53.83
2022-12-24T17:17:34.662Z,47.40
2022-12-24T17:20:01.559Z,63.70
2022-12-24T17:22:28.253Z,71.77
2022-12-24T17:24:55.518Z,59.30
2022-12-24T17:27:22.732Z,66.80
2022-12-24T17:29:49.815Z,61.93
2022-12-24T17:32:16.982Z,60.03
2022-12-24T17:34:43.672Z,79.40
2022-12-24T17:37:10.528Z,69.90
2022-12-24T17:39:37.333Z,69.90
2022-12-24T17:42:04.503Z,66.73
2022-12-24T17:44:31.299Z,72.63
2022-12-24T17:46:58.119Z,52.57
2022-12-24T17:49:24.945Z,63.10
2022-12-24T17:51:51.627Z,76.10
2022-12-24T17:54:18.361Z,95.60
2022-12-24T17:56:45.370Z,61.43
2022-12-24T17:59:12.066Z,67.97
2022-12-24T18:01:38.803Z,69.80
2022-12-24T18:04:06.028Z,62.87
2022-12-24T18:06:33.325Z,62.77
2022-12-24T18:09:00.065Z,60.20
2022-12-24T18:11:32.582Z,55.03
2022-12-24T18:14:01.265Z,60.33
2022-12-24T18:16:34.033Z,61.43
2022-12-24T18:19:01.441Z,80.63
2022-12-24T18:21:31.133Z,71.43
2022-12-24T18:23:58.285Z,91.43
2022-12-24T18:26:27.924Z,100.60
2022-12-24T18:28:57.031Z,143.47
2022-12-24T18:31:26.717Z,160.37
2022-12-24T18:33:55.703Z,126.40
2022-12-24T18:36:23.066Z,77.07
2022-12-24T18:38:50.145Z,60.90
2022-12-24T18:41:20.135Z,69.27
2022-12-24T18:43:47.025Z,63.37
2022-12-24T18:46:25.737Z,57.43
2022-12-24T18:48:53.247Z,57.87
2022-12-24T18:51:24.960Z,78.30
2022-12-24T18:53:51.680Z,63.17
2022-12-24T18:56:21.411Z,57.60
2022-12-24T18:58:52.743Z,73.67
2022-12-24T19:01:28.618Z,65.33
2022-12-24T19:03:56.125Z,65.30
2022-12-24T19:06:25.992Z,61.17
2022-12-24T19:09:01.715Z,70.63
2022-12-24T19:11:31.309Z,67.13
2022-12-24T19:13:58.830Z,71.57
2022-12-24T19:16:26.820Z,65.27
2022-12-24T19:18:53.850Z,54.23
2022-12-24T19:21:20.687Z,61.97
2022-12-24T19:23:48.066Z,73.23
2022-12-24T19:26:17.267Z,76.23
2022-12-24T19:28:43.961Z,75.70
2022-12-24T19:31:15.559Z,67.10
2022-12-24T19:33:49.131Z,75.23
2022-12-24T19:36:23.357Z,70.80
2022-12-24T19:38:50.272Z,75.30
2022-12-24T19:41:23.087Z,65.70
2022-12-24T19:43:54.731Z,48.57
2022-12-24T19:46:24.188Z,58.37
2022-12-24T19:48:57.992Z,52.27
2022-12-24T19:51:26.064Z,62.70
2022-12-24T19:53:54.422Z,55.97
2022-12-24T19:56:22.969Z,63.80
2022-12-24T19:58:49.749Z,71.10
2022-12-24T20:01:19.588Z,67.43
2022-12-24T20:03:47.472Z,74.40
2022-12-24T20:06:16.034Z,64.50
2022-12-24T20:08:43.338Z,69.50
2022-12-24T20:11:16.279Z,75.43
2022-12-24T20:13:43.670Z,72.77
2022-12-24T20:16:13.985Z,80.10
2022-12-24T20:18:40.869Z,73.73
2022-12-24T20:21:10.961Z,74.87
2022-12-24T20:23:39.617Z,101.97
2022-12-24T20:26:07.833Z,90.87
2022-12-24T20:28:36.509Z,98.63
2022-12-24T20:31:13.919Z,109.70
2022-12-24T20:33:41.849Z,93.67
2022-12-24T20:36:08.983Z,109.23
2022-12-24T20:38:35.909Z,108.73
2022-12-24T20:41:02.728Z,90.90
2022-12-24T20:43:34.504Z,91.27
2022-12-24T20:46:03.792Z,98.90
2022-12-24T20:48:31.311Z,97.40
2022-12-24T20:50:59.156Z,77.97
2022-12-24T20:53:27.137Z,93.20
2022-12-24T20:55:54.367Z,89.27
2022-12-24T20:58:21.316Z,92.57
2022-12-24T21:00:48.832Z,91.60
2022-12-24T21:03:17.293Z,95.03
2022-12-24T21:05:44.884Z,88.53
2022-12-24T21:08:13.292Z,90.03
2022-12-24T21:10:40.503Z,97.03
2022-12-24T21:13:07.898Z,90.90
2022-12-24T21:15:39.946Z,101.83
2022-12-24T21:18:11.745Z,86.83
2022-12-24T21:20:40.007Z,92.53
2022-12-24T21:23:07.113Z,86.90
2022-12-24T21:25:34.254Z,85.83
2022-12-24T21:28:01.404Z,88.47
2022-12-24T21:30:28.129Z,90.70
2022-12-24T21:32:54.875Z,86.00
2022-12-24T21:35:21.543Z,96.50
2022-12-24T21:37:48.269Z,79.77
2022-12-24T21:40:14.969Z,91.40
2022-12-24T21:42:41.633Z,79.63
2022-12-24T21:45:09.106Z,100.13
2022-12-24T21:47:36.802Z,96.63
2022-12-24T21:50:25.618Z,88.97
2022-12-24T21:53:14.874Z,105.47
2022-12-24T21:55:41.534Z,90.70
2022-12-24T21:58:08.199Z,87.50
2022-12-24T22:00:35.688Z,82.20
2022-12-24T22:03:02.598Z,91.73
2022-12-24T22:05:34.109Z,83.70
2022-12-24T22:08:19.599Z,77.33
2022-12-24T22:11:05.274Z,84.27
2022-12-24T22:13:32.188Z,82.50
2022-12-24T22:15:59.074Z,75.50
2022-12-24T22:18:26.530Z,82.00
2022-12-24T22:20:53.326Z,77.57
2022-12-24T22:23:20.041Z,69.90
2022-12-24T22:25:47.149Z,80.80
2022-12-24T22:28:14.106Z,90.27
2022-12-24T22:30:42.751Z,94.13
2022-12-24T22:33:10.489Z,77.03
2022-12-24T22:35:38.741Z,73.93
2022-12-24T22:38:06.179Z,90.63
2022-12-24T22:40:32.837Z,94.87
2022-12-24T22:42:59.526Z,90.90
2022-12-24T22:45:26.219Z,83.97
2022-12-24T22:47:52.861Z,97.50
2022-12-24T22:50:19.738Z,102.33
2022-12-24T22:52:46.405Z,88.40
2022-12-24T22:55:13.074Z,91.47
2022-12-24T22:57:39.767Z,103.07
2022-12-24T23:00:13.707Z,92.13
2022-12-24T23:02:40.588Z,96.80
2022-12-24T23:05:12.947Z,93.23
2022-12-24T23:07:40.567Z,98.33
2022-12-24T23:10:08.369Z,95.73
2022-12-24T23:12:53.613Z,107.77
2022-12-24T23:15:20.285Z,86.40
2022-12-24T23:17:49.204Z,97.43
2022-12-24T23:20:16.331Z,85.37
2022-12-24T23:22:42.980Z,106.70
2022-12-24T23:25:10.081Z,96.17
2022-12-24T23:27:38.666Z,105.93
2022-12-24T23:30:05.922Z,162.27
2022-12-24T23:32:32.601Z,108.40
2022-12-24T23:34:59.243Z,121.80
2022-12-24T23:37:32.993Z,97.37
2022-12-24T23:40:01.916Z,82.47
2022-12-24T23:42:28.605Z,68.00
2022-12-24T23:44:55.331Z,64.03
2022-12-24T23:47:22.143Z,76.50
2022-12-24T23:49:48.850Z,67.73
2022-12-24T23:52:15.522Z,77.33
2022-12-24T23:54:42.292Z,65.27
2022-12-24T23:57:08.979Z,65.43
2022-12-24T23:59:36.965Z,60.60
